sensor_id;sensor_type;location;lat;lon;timestamp;P1;durP1;ratioP1;P2;durP2;ratioP2
56041;SDS011;48756;41.374;2.066;2022-08-11T00:00:01;15.73;;;6.55;;
56041;SDS011;48756;41.374;2.066;2022-08-11T00:02:33;10.52;;;4.22;;
56041;SDS011;48756;41.374;2.066;2022-08-11T00:05:06;11.38;;;5.05;;
56041;SDS011;48756;41.374;2.066;2022-08-11T00:07:34;11.15;;;4.93;;
56041;SDS011;48756;41.374;2.066;2022-08-11T00:10:09;11.18;;;4.93;;
56041;SDS011;48756;41.374;2.066;2022-08-11T00:12:37;11.75;;;4.00;;
56041;SDS011;48756;41.374;2.066;2022-08-11T00:15:03;18.10;;;4.90;;
56041;SDS011;48756;41.374;2.066;2022-08-11T00:17:30;6.43;;;3.30;;
56041;SDS011;48756;41.374;2.066;2022-08-11T00:20:16;5.30;;;3.65;;
56041;SDS011;48756;41.374;2.066;2022-08-11T00:22:42;5.03;;;2.45;;
56041;SDS011;48756;41.374;2.066;2022-08-11T00:25:11;5.25;;;3.05;;
56041;SDS011;48756;41.374;2.066;2022-08-11T00:27:39;6.00;;;2.28;;
56041;SDS011;48756;41.374;2.066;2022-08-11T00:30:10;4.22;;;1.60;;
56041;SDS011;48756;41.374;2.066;2022-08-11T00:32:36;2.83;;;2.25;;
56041;SDS011;48756;41.374;2.066;2022-08-11T00:35:05;4.57;;;1.60;;
56041;SDS011;48756;41.374;2.066;2022-08-11T00:37:34;4.05;;;1.83;;
56041;SDS011;48756;41.374;2.066;2022-08-11T00:40:03;4.25;;;1.88;;
56041;SDS011;48756;41.374;2.066;2022-08-11T00:45:38;7.25;;;2.33;;
56041;SDS011;48756;41.374;2.066;2022-08-11T00:56:44;3.70;;;1.88;;
56041;SDS011;48756;41.374;2.066;2022-08-11T01:41:00;2.55;;;1.13;;
56041;SDS011;48756;41.374;2.066;2022-08-11T01:43:56;3.90;;;1.90;;
56041;SDS011;48756;41.374;2.066;2022-08-11T01:46:49;2.65;;;1.42;;
56041;SDS011;48756;41.374;2.066;2022-08-11T01:49:31;2.88;;;1.55;;
56041;SDS011;48756;41.374;2.066;2022-08-11T01:58:00;4.75;;;2.30;;
56041;SDS011;48756;41.374;2.066;2022-08-11T02:00:38;3.58;;;1.30;;
56041;SDS011;48756;41.374;2.066;2022-08-11T02:06:47;1.80;;;1.10;;
56041;SDS011;48756;41.374;2.066;2022-08-11T02:12:23;1.45;;;1.35;;
56041;SDS011;48756;41.374;2.066;2022-08-11T02:15:06;1.70;;;1.30;;
56041;SDS011;48756;41.374;2.066;2022-08-11T02:20:54;2.88;;;1.75;;
56041;SDS011;48756;41.374;2.066;2022-08-11T02:23:55;8.25;;;3.35;;
56041;SDS011;48756;41.374;2.066;2022-08-11T02:26:31;5.47;;;2.20;;
56041;SDS011;48756;41.374;2.066;2022-08-11T02:32:31;1.55;;;1.30;;
56041;SDS011;48756;41.374;2.066;2022-08-11T02:35:25;1.70;;;1.20;;
56041;SDS011;48756;41.374;2.066;2022-08-11T02:49:50;9.85;;;2.22;;
56041;SDS011;48756;41.374;2.066;2022-08-11T02:57:34;3.78;;;1.98;;
56041;SDS011;48756;41.374;2.066;2022-08-11T03:00:19;4.97;;;1.98;;
56041;SDS011;48756;41.374;2.066;2022-08-11T03:05:47;3.00;;;2.45;;
56041;SDS011;48756;41.374;2.066;2022-08-11T03:11:20;2.25;;;1.73;;
56041;SDS011;48756;41.374;2.066;2022-08-11T03:14:19;2.97;;;2.13;;
56041;SDS011;48756;41.374;2.066;2022-08-11T03:22:51;3.08;;;1.65;;
56041;SDS011;48756;41.374;2.066;2022-08-11T03:31:05;3.00;;;2.20;;
56041;SDS011;48756;41.374;2.066;2022-08-11T03:33:37;3.72;;;1.80;;
56041;SDS011;48756;41.374;2.066;2022-08-11T03:36:35;3.45;;;1.70;;
56041;SDS011;48756;41.374;2.066;2022-08-11T03:45:19;3.40;;;2.13;;
56041;SDS011;48756;41.374;2.066;2022-08-11T03:50:50;5.40;;;1.95;;
56041;SDS011;48756;41.374;2.066;2022-08-11T03:59:34;4.15;;;1.45;;
56041;SDS011;48756;41.374;2.066;2022-08-11T04:14:11;2.97;;;1.58;;
56041;SDS011;48756;41.374;2.066;2022-08-11T04:25:42;3.60;;;1.92;;
56041;SDS011;48756;41.374;2.066;2022-08-11T04:31:23;6.88;;;3.08;;
56041;SDS011;48756;41.374;2.066;2022-08-11T04:34:20;5.35;;;2.95;;
56041;SDS011;48756;41.374;2.066;2022-08-11T05:08:04;2.03;;;1.60;;
56041;SDS011;48756;41.374;2.066;2022-08-11T05:13:20;3.00;;;2.22;;
56041;SDS011;48756;41.374;2.066;2022-08-11T05:16:26;2.20;;;2.00;;
56041;SDS011;48756;41.374;2.066;2022-08-11T05:19:14;3.85;;;1.77;;
56041;SDS011;48756;41.374;2.066;2022-08-11T05:22:00;3.58;;;1.38;;
56041;SDS011;48756;41.374;2.066;2022-08-11T05:25:04;1.77;;;1.55;;
56041;SDS011;48756;41.374;2.066;2022-08-11T05:28:04;2.95;;;2.15;;
56041;SDS011;48756;41.374;2.066;2022-08-11T05:31:08;1.55;;;1.27;;
56041;SDS011;48756;41.374;2.066;2022-08-11T05:34:32;9.13;;;1.85;;
56041;SDS011;48756;41.374;2.066;2022-08-11T05:37:13;2.45;;;2.00;;
56041;SDS011;48756;41.374;2.066;2022-08-11T05:39:47;2.95;;;1.77;;
56041;SDS011;48756;41.374;2.066;2022-08-11T05:42:33;2.63;;;1.65;;
56041;SDS011;48756;41.374;2.066;2022-08-11T05:45:22;2.45;;;2.00;;
56041;SDS011;48756;41.374;2.066;2022-08-11T05:48:06;2.38;;;1.45;;
56041;SDS011;48756;41.374;2.066;2022-08-11T05:50:51;4.03;;;2.25;;
56041;SDS011;48756;41.374;2.066;2022-08-11T05:53:52;3.40;;;1.52;;
56041;SDS011;48756;41.374;2.066;2022-08-11T05:56:52;1.58;;;1.45;;
56041;SDS011;48756;41.374;2.066;2022-08-11T05:59:21;3.25;;;1.85;;
56041;SDS011;48756;41.374;2.066;2022-08-11T06:01:48;4.80;;;2.03;;
56041;SDS011;48756;41.374;2.066;2022-08-11T06:04:21;4.50;;;1.63;;
56041;SDS011;48756;41.374;2.066;2022-08-11T06:06:58;4.13;;;1.85;;
56041;SDS011;48756;41.374;2.066;2022-08-11T06:09:34;3.63;;;1.50;;
56041;SDS011;48756;41.374;2.066;2022-08-11T06:12:06;3.28;;;1.63;;
56041;SDS011;48756;41.374;2.066;2022-08-11T06:14:56;7.45;;;2.20;;
56041;SDS011;48756;41.374;2.066;2022-08-11T06:17:29;4.10;;;1.90;;
56041;SDS011;48756;41.374;2.066;2022-08-11T06:19:59;3.88;;;1.77;;
56041;SDS011;48756;41.374;2.066;2022-08-11T06:22:28;2.92;;;2.47;;
56041;SDS011;48756;41.374;2.066;2022-08-11T06:24:56;4.30;;;2.53;;
56041;SDS011;48756;41.374;2.066;2022-08-11T06:27:25;2.05;;;1.63;;
56041;SDS011;48756;41.374;2.066;2022-08-11T06:29:54;11.77;;;1.88;;
56041;SDS011;48756;41.374;2.066;2022-08-11T06:32:25;6.07;;;2.35;;
56041;SDS011;48756;41.374;2.066;2022-08-11T06:37:43;18.25;;;1.77;;
56041;SDS011;48756;41.374;2.066;2022-08-11T06:43:17;6.30;;;1.83;;
56041;SDS011;48756;41.374;2.066;2022-08-11T06:46:01;3.47;;;1.45;;
56041;SDS011;48756;41.374;2.066;2022-08-11T06:48:32;2.70;;;1.88;;
56041;SDS011;48756;41.374;2.066;2022-08-11T06:51:01;3.65;;;1.50;;
56041;SDS011;48756;41.374;2.066;2022-08-11T06:56:06;6.88;;;1.85;;
56041;SDS011;48756;41.374;2.066;2022-08-11T06:58:52;2.55;;;1.95;;
56041;SDS011;48756;41.374;2.066;2022-08-11T07:04:32;4.38;;;1.80;;
56041;SDS011;48756;41.374;2.066;2022-08-11T07:13:08;3.20;;;1.90;;
56041;SDS011;48756;41.374;2.066;2022-08-11T07:15:55;3.47;;;2.03;;
56041;SDS011;48756;41.374;2.066;2022-08-11T07:18:28;2.85;;;1.80;;
56041;SDS011;48756;41.374;2.066;2022-08-11T07:24:14;3.60;;;2.47;;
56041;SDS011;48756;41.374;2.066;2022-08-11T07:27:13;3.33;;;2.63;;
56041;SDS011;48756;41.374;2.066;2022-08-11T07:30:07;2.28;;;1.70;;
56041;SDS011;48756;41.374;2.066;2022-08-11T07:32:50;5.68;;;2.60;;
56041;SDS011;48756;41.374;2.066;2022-08-11T07:35:20;8.75;;;1.98;;
56041;SDS011;48756;41.374;2.066;2022-08-11T07:37:52;2.42;;;1.58;;
56041;SDS011;48756;41.374;2.066;2022-08-11T07:40:22;2.85;;;1.88;;
56041;SDS011;48756;41.374;2.066;2022-08-11T07:42:49;2.08;;;1.88;;
56041;SDS011;48756;41.374;2.066;2022-08-11T07:45:18;4.55;;;1.92;;
56041;SDS011;48756;41.374;2.066;2022-08-11T07:48:02;4.70;;;1.73;;
56041;SDS011;48756;41.374;2.066;2022-08-11T07:50:47;2.23;;;1.70;;
56041;SDS011;48756;41.374;2.066;2022-08-11T07:53:32;3.35;;;2.55;;
56041;SDS011;48756;41.374;2.066;2022-08-11T07:56:02;5.65;;;2.20;;
56041;SDS011;48756;41.374;2.066;2022-08-11T07:58:30;2.95;;;2.20;;
56041;SDS011;48756;41.374;2.066;2022-08-11T08:01:17;2.97;;;2.67;;
56041;SDS011;48756;41.374;2.066;2022-08-11T08:04:06;5.22;;;2.53;;
56041;SDS011;48756;41.374;2.066;2022-08-11T08:09:36;8.60;;;2.42;;
56041;SDS011;48756;41.374;2.066;2022-08-11T08:12:21;1.88;;;1.63;;
56041;SDS011;48756;41.374;2.066;2022-08-11T08:15:08;2.65;;;1.67;;
56041;SDS011;48756;41.374;2.066;2022-08-11T08:17:56;1.65;;;1.55;;
56041;SDS011;48756;41.374;2.066;2022-08-11T08:20:28;1.98;;;1.23;;
56041;SDS011;48756;41.374;2.066;2022-08-11T08:22:57;2.20;;;1.77;;
56041;SDS011;48756;41.374;2.066;2022-08-11T08:25:26;2.60;;;1.75;;
56041;SDS011;48756;41.374;2.066;2022-08-11T08:27:59;2.33;;;1.92;;
56041;SDS011;48756;41.374;2.066;2022-08-11T08:30:27;2.95;;;1.30;;
56041;SDS011;48756;41.374;2.066;2022-08-11T08:33:14;3.28;;;2.22;;
56041;SDS011;48756;41.374;2.066;2022-08-11T08:35:43;3.30;;;1.40;;
56041;SDS011;48756;41.374;2.066;2022-08-11T08:38:10;3.20;;;1.85;;
56041;SDS011;48756;41.374;2.066;2022-08-11T08:40:37;3.08;;;1.42;;
56041;SDS011;48756;41.374;2.066;2022-08-11T08:43:07;4.28;;;2.13;;
56041;SDS011;48756;41.374;2.066;2022-08-11T08:45:35;2.60;;;1.45;;
56041;SDS011;48756;41.374;2.066;2022-08-11T08:48:21;1.48;;;1.20;;
56041;SDS011;48756;41.374;2.066;2022-08-11T08:50:54;4.75;;;2.00;;
56041;SDS011;48756;41.374;2.066;2022-08-11T08:53:45;3.40;;;1.75;;
56041;SDS011;48756;41.374;2.066;2022-08-11T08:56:14;4.53;;;1.85;;
56041;SDS011;48756;41.374;2.066;2022-08-11T08:58:40;2.03;;;1.77;;
56041;SDS011;48756;41.374;2.066;2022-08-11T09:01:10;17.00;;;2.00;;
56041;SDS011;48756;41.374;2.066;2022-08-11T09:03:39;5.10;;;1.10;;
56041;SDS011;48756;41.374;2.066;2022-08-11T09:06:05;2.55;;;1.60;;
56041;SDS011;48756;41.374;2.066;2022-08-11T09:08:31;4.05;;;2.00;;
56041;SDS011;48756;41.374;2.066;2022-08-11T09:10:59;0.98;;;0.88;;
56041;SDS011;48756;41.374;2.066;2022-08-11T09:13:46;2.22;;;1.23;;
56041;SDS011;48756;41.374;2.066;2022-08-11T09:16:12;1.30;;;1.20;;
56041;SDS011;48756;41.374;2.066;2022-08-11T09:18:38;2.67;;;1.50;;
56041;SDS011;48756;41.374;2.066;2022-08-11T09:21:10;3.15;;;1.33;;
56041;SDS011;48756;41.374;2.066;2022-08-11T09:23:38;3.83;;;1.20;;
56041;SDS011;48756;41.374;2.066;2022-08-11T09:26:24;2.20;;;1.73;;
56041;SDS011;48756;41.374;2.066;2022-08-11T09:29:09;4.17;;;1.70;;
56041;SDS011;48756;41.374;2.066;2022-08-11T09:31:35;8.98;;;1.23;;
56041;SDS011;48756;41.374;2.066;2022-08-11T09:34:02;1.38;;;1.27;;
56041;SDS011;48756;41.374;2.066;2022-08-11T09:36:27;1.90;;;1.50;;
56041;SDS011;48756;41.374;2.066;2022-08-11T09:39:12;2.90;;;1.70;;
56041;SDS011;48756;41.374;2.066;2022-08-11T09:41:58;1.60;;;1.13;;
56041;SDS011;48756;41.374;2.066;2022-08-11T09:44:26;2.38;;;1.95;;
56041;SDS011;48756;41.374;2.066;2022-08-11T09:47:10;2.35;;;0.75;;
56041;SDS011;48756;41.374;2.066;2022-08-11T09:49:40;2.28;;;1.20;;
56041;SDS011;48756;41.374;2.066;2022-08-11T09:52:08;2.28;;;1.23;;
56041;SDS011;48756;41.374;2.066;2022-08-11T09:54:35;6.43;;;1.42;;
56041;SDS011;48756;41.374;2.066;2022-08-11T09:57:01;1.35;;;1.25;;
56041;SDS011;48756;41.374;2.066;2022-08-11T09:59:46;2.55;;;0.77;;
56041;SDS011;48756;41.374;2.066;2022-08-11T10:02:12;1.10;;;1.00;;
56041;SDS011;48756;41.374;2.066;2022-08-11T10:04:58;0.80;;;0.77;;
56041;SDS011;48756;41.374;2.066;2022-08-11T10:07:44;1.90;;;1.07;;
56041;SDS011;48756;41.374;2.066;2022-08-11T10:10:15;0.93;;;0.80;;
56041;SDS011;48756;41.374;2.066;2022-08-11T10:12:47;1.95;;;1.20;;
56041;SDS011;48756;41.374;2.066;2022-08-11T10:15:17;1.83;;;1.55;;
56041;SDS011;48756;41.374;2.066;2022-08-11T10:18:05;1.25;;;1.00;;
56041;SDS011;48756;41.374;2.066;2022-08-11T10:21:01;1.50;;;0.97;;
56041;SDS011;48756;41.374;2.066;2022-08-11T10:23:31;3.92;;;1.30;;
56041;SDS011;48756;41.374;2.066;2022-08-11T10:26:18;1.35;;;1.10;;
56041;SDS011;48756;41.374;2.066;2022-08-11T10:29:04;1.15;;;1.05;;
56041;SDS011;48756;41.374;2.066;2022-08-11T10:31:54;3.92;;;1.60;;
56041;SDS011;48756;41.374;2.066;2022-08-11T10:34:40;1.10;;;1.00;;
56041;SDS011;48756;41.374;2.066;2022-08-11T10:37:09;2.17;;;1.20;;
56041;SDS011;48756;41.374;2.066;2022-08-11T10:39:36;4.30;;;1.25;;
56041;SDS011;48756;41.374;2.066;2022-08-11T10:42:03;1.45;;;1.15;;
56041;SDS011;48756;41.374;2.066;2022-08-11T10:44:53;3.35;;;1.55;;
56041;SDS011;48756;41.374;2.066;2022-08-11T10:47:21;2.10;;;1.00;;
56041;SDS011;48756;41.374;2.066;2022-08-11T10:50:08;1.23;;;1.13;;
56041;SDS011;48756;41.374;2.066;2022-08-11T10:52:55;2.35;;;0.70;;
56041;SDS011;48756;41.374;2.066;2022-08-11T10:55:42;2.08;;;1.38;;
56041;SDS011;48756;41.374;2.066;2022-08-11T10:58:29;0.98;;;0.70;;
56041;SDS011;48756;41.374;2.066;2022-08-11T11:01:15;1.00;;;0.80;;
56041;SDS011;48756;41.374;2.066;2022-08-11T11:03:49;2.58;;;1.50;;
56041;SDS011;48756;41.374;2.066;2022-08-11T11:06:22;3.58;;;1.13;;
56041;SDS011;48756;41.374;2.066;2022-08-11T11:08:56;1.92;;;1.45;;
56041;SDS011;48756;41.374;2.066;2022-08-11T11:11:27;2.83;;;1.10;;
56041;SDS011;48756;41.374;2.066;2022-08-11T11:14:18;1.33;;;0.90;;
56041;SDS011;48756;41.374;2.066;2022-08-11T11:17:04;3.17;;;1.05;;
56041;SDS011;48756;41.374;2.066;2022-08-11T11:19:38;2.35;;;0.88;;
56041;SDS011;48756;41.374;2.066;2022-08-11T11:22:07;1.50;;;1.00;;
56041;SDS011;48756;41.374;2.066;2022-08-11T11:31:05;1.45;;;0.93;;
56041;SDS011;48756;41.374;2.066;2022-08-11T11:39:07;0.90;;;0.73;;
56041;SDS011;48756;41.374;2.066;2022-08-11T11:41:33;1.98;;;1.40;;
56041;SDS011;48756;41.374;2.066;2022-08-11T11:44:00;1.17;;;1.08;;
56041;SDS011;48756;41.374;2.066;2022-08-11T11:46:27;1.92;;;0.75;;
56041;SDS011;48756;41.374;2.066;2022-08-11T11:48:54;2.40;;;1.20;;
56041;SDS011;48756;41.374;2.066;2022-08-11T11:51:21;3.78;;;1.42;;
56041;SDS011;48756;41.374;2.066;2022-08-11T11:53:48;0.82;;;0.82;;
56041;SDS011;48756;41.374;2.066;2022-08-11T11:56:15;1.20;;;1.10;;
56041;SDS011;48756;41.374;2.066;2022-08-11T11:58:41;1.67;;;1.05;;
56041;SDS011;48756;41.374;2.066;2022-08-11T12:01:26;1.52;;;1.20;;
56041;SDS011;48756;41.374;2.066;2022-08-11T12:03:53;1.10;;;0.95;;
56041;SDS011;48756;41.374;2.066;2022-08-11T12:06:22;2.80;;;1.10;;
56041;SDS011;48756;41.374;2.066;2022-08-11T12:08:50;1.35;;;1.25;;
56041;SDS011;48756;41.374;2.066;2022-08-11T12:11:20;4.25;;;1.92;;
56041;SDS011;48756;41.374;2.066;2022-08-11T12:14:07;4.82;;;1.15;;
56041;SDS011;48756;41.374;2.066;2022-08-11T12:16:36;1.50;;;1.40;;
56041;SDS011;48756;41.374;2.066;2022-08-11T12:19:08;1.65;;;1.00;;
56041;SDS011;48756;41.374;2.066;2022-08-11T12:21:39;1.30;;;1.10;;
56041;SDS011;48756;41.374;2.066;2022-08-11T12:24:26;0.95;;;0.90;;
56041;SDS011;48756;41.374;2.066;2022-08-11T12:27:11;1.20;;;1.10;;
56041;SDS011;48756;41.374;2.066;2022-08-11T12:29:55;1.25;;;0.90;;
56041;SDS011;48756;41.374;2.066;2022-08-11T12:32:25;2.80;;;1.20;;
56041;SDS011;48756;41.374;2.066;2022-08-11T12:34:53;1.23;;;0.93;;
56041;SDS011;48756;41.374;2.066;2022-08-11T12:37:21;2.70;;;1.05;;
56041;SDS011;48756;41.374;2.066;2022-08-11T12:39:56;1.20;;;0.90;;
56041;SDS011;48756;41.374;2.066;2022-08-11T12:42:43;0.75;;;0.75;;
56041;SDS011;48756;41.374;2.066;2022-08-11T12:45:30;1.48;;;0.88;;
56041;SDS011;48756;41.374;2.066;2022-08-11T12:50:56;1.50;;;1.37;;
56041;SDS011;48756;41.374;2.066;2022-08-11T12:53:54;9.13;;;2.70;;
56041;SDS011;48756;41.374;2.066;2022-08-11T12:56:26;2.88;;;1.17;;
56041;SDS011;48756;41.374;2.066;2022-08-11T12:59:15;2.95;;;1.05;;
56041;SDS011;48756;41.374;2.066;2022-08-11T13:02:01;1.75;;;0.90;;
56041;SDS011;48756;41.374;2.066;2022-08-11T13:04:46;1.30;;;1.25;;
56041;SDS011;48756;41.374;2.066;2022-08-11T13:07:18;1.38;;;0.98;;
56041;SDS011;48756;41.374;2.066;2022-08-11T13:09:44;1.50;;;1.40;;
56041;SDS011;48756;41.374;2.066;2022-08-11T13:12:10;1.25;;;1.15;;
56041;SDS011;48756;41.374;2.066;2022-08-11T13:15:03;1.48;;;1.30;;
56041;SDS011;48756;41.374;2.066;2022-08-11T13:17:29;1.20;;;0.93;;
56041;SDS011;48756;41.374;2.066;2022-08-11T13:19:56;2.70;;;1.20;;
56041;SDS011;48756;41.374;2.066;2022-08-11T13:22:23;1.30;;;1.20;;
56041;SDS011;48756;41.374;2.066;2022-08-11T13:24:51;1.20;;;1.10;;
56041;SDS011;48756;41.374;2.066;2022-08-11T13:27:21;2.72;;;0.98;;
56041;SDS011;48756;41.374;2.066;2022-08-11T13:29:49;1.20;;;1.10;;
56041;SDS011;48756;41.374;2.066;2022-08-11T13:32:35;1.98;;;1.15;;
56041;SDS011;48756;41.374;2.066;2022-08-11T13:35:03;3.35;;;1.42;;
56041;SDS011;48756;41.374;2.066;2022-08-11T13:37:29;0.95;;;0.95;;
56041;SDS011;48756;41.374;2.066;2022-08-11T13:39:55;0.98;;;0.80;;
56041;SDS011;48756;41.374;2.066;2022-08-11T13:42:22;1.27;;;1.17;;
56041;SDS011;48756;41.374;2.066;2022-08-11T13:44:49;1.90;;;1.42;;
56041;SDS011;48756;41.374;2.066;2022-08-11T13:47:15;2.22;;;1.20;;
56041;SDS011;48756;41.374;2.066;2022-08-11T13:49:41;1.35;;;1.13;;
56041;SDS011;48756;41.374;2.066;2022-08-11T13:52:09;1.95;;;1.50;;
56041;SDS011;48756;41.374;2.066;2022-08-11T13:54:37;1.08;;;1.08;;
56041;SDS011;48756;41.374;2.066;2022-08-11T13:57:06;1.10;;;1.10;;
56041;SDS011;48756;41.374;2.066;2022-08-11T13:59:33;1.48;;;1.38;;
56041;SDS011;48756;41.374;2.066;2022-08-11T14:02:01;1.67;;;1.58;;
56041;SDS011;48756;41.374;2.066;2022-08-11T14:07:16;0.88;;;0.88;;
56041;SDS011;48756;41.374;2.066;2022-08-11T14:09:46;2.30;;;2.13;;
56041;SDS011;48756;41.374;2.066;2022-08-11T14:12:30;1.33;;;1.23;;
56041;SDS011;48756;41.374;2.066;2022-08-11T14:15:21;1.90;;;1.80;;
56041;SDS011;48756;41.374;2.066;2022-08-11T14:17:55;3.85;;;1.15;;
56041;SDS011;48756;41.374;2.066;2022-08-11T14:20:41;3.72;;;1.45;;
56041;SDS011;48756;41.374;2.066;2022-08-11T14:23:31;1.80;;;1.70;;
56041;SDS011;48756;41.374;2.066;2022-08-11T14:26:01;1.52;;;1.42;;
56041;SDS011;48756;41.374;2.066;2022-08-11T14:28:46;2.77;;;2.57;;
56041;SDS011;48756;41.374;2.066;2022-08-11T14:31:13;1.88;;;1.40;;
56041;SDS011;48756;41.374;2.066;2022-08-11T14:33:40;2.08;;;1.42;;
56041;SDS011;48756;41.374;2.066;2022-08-11T14:36:09;1.40;;;1.30;;
56041;SDS011;48756;41.374;2.066;2022-08-11T14:38:36;5.63;;;1.67;;
56041;SDS011;48756;41.374;2.066;2022-08-11T14:41:04;4.60;;;1.67;;
56041;SDS011;48756;41.374;2.066;2022-08-11T14:43:52;1.67;;;1.58;;
56041;SDS011;48756;41.374;2.066;2022-08-11T14:46:39;1.50;;;1.40;;
56041;SDS011;48756;41.374;2.066;2022-08-11T14:49:23;3.53;;;1.88;;
56041;SDS011;48756;41.374;2.066;2022-08-11T14:51:50;2.92;;;1.65;;
56041;SDS011;48756;41.374;2.066;2022-08-11T14:54:23;1.77;;;1.40;;
56041;SDS011;48756;41.374;2.066;2022-08-11T14:57:08;1.45;;;1.35;;
56041;SDS011;48756;41.374;2.066;2022-08-11T14:59:35;2.45;;;1.10;;
56041;SDS011;48756;41.374;2.066;2022-08-11T15:02:02;1.35;;;1.05;;
56041;SDS011;48756;41.374;2.066;2022-08-11T15:04:47;1.23;;;1.08;;
56041;SDS011;48756;41.374;2.066;2022-08-11T15:07:14;3.05;;;1.50;;
56041;SDS011;48756;41.374;2.066;2022-08-11T15:09:41;3.08;;;0.85;;
56041;SDS011;48756;41.374;2.066;2022-08-11T15:12:09;2.65;;;0.82;;
56041;SDS011;48756;41.374;2.066;2022-08-11T15:14:45;0.93;;;0.93;;
56041;SDS011;48756;41.374;2.066;2022-08-11T15:17:30;1.48;;;1.23;;
56041;SDS011;48756;41.374;2.066;2022-08-11T15:19:59;1.20;;;1.10;;
56041;SDS011;48756;41.374;2.066;2022-08-11T15:22:48;1.77;;;1.13;;
56041;SDS011;48756;41.374;2.066;2022-08-11T15:25:33;1.17;;;1.08;;
56041;SDS011;48756;41.374;2.066;2022-08-11T15:28:00;1.10;;;0.98;;
56041;SDS011;48756;41.374;2.066;2022-08-11T15:33:32;1.63;;;1.27;;
56041;SDS011;48756;41.374;2.066;2022-08-11T15:36:29;1.25;;;1.13;;
56041;SDS011;48756;41.374;2.066;2022-08-11T15:39:18;3.38;;;0.80;;
56041;SDS011;48756;41.374;2.066;2022-08-11T15:41:50;1.33;;;0.90;;
56041;SDS011;48756;41.374;2.066;2022-08-11T15:44:56;1.42;;;1.30;;
56041;SDS011;48756;41.374;2.066;2022-08-11T15:47:49;1.23;;;1.17;;
56041;SDS011;48756;41.374;2.066;2022-08-11T15:50:21;1.60;;;1.50;;
56041;SDS011;48756;41.374;2.066;2022-08-11T15:53:01;6.28;;;2.85;;
56041;SDS011;48756;41.374;2.066;2022-08-11T15:55:29;2.15;;;1.17;;
56041;SDS011;48756;41.374;2.066;2022-08-11T15:58:00;0.98;;;0.98;;
56041;SDS011;48756;41.374;2.066;2022-08-11T16:00:46;1.40;;;1.27;;
56041;SDS011;48756;41.374;2.066;2022-08-11T16:03:35;1.15;;;1.05;;
56041;SDS011;48756;41.374;2.066;2022-08-11T16:06:25;1.35;;;1.10;;
56041;SDS011;48756;41.374;2.066;2022-08-11T16:08:55;1.58;;;1.15;;
56041;SDS011;48756;41.374;2.066;2022-08-11T16:11:23;7.68;;;1.30;;
56041;SDS011;48756;41.374;2.066;2022-08-11T16:13:50;1.10;;;1.00;;
56041;SDS011;48756;41.374;2.066;2022-08-11T16:16:37;1.17;;;1.08;;
56041;SDS011;48756;41.374;2.066;2022-08-11T16:19:04;1.38;;;1.27;;
56041;SDS011;48756;41.374;2.066;2022-08-11T16:21:34;5.72;;;0.90;;
56041;SDS011;48756;41.374;2.066;2022-08-11T16:24:05;1.20;;;1.10;;
56041;SDS011;48756;41.374;2.066;2022-08-11T16:26:34;1.05;;;0.90;;
56041;SDS011;48756;41.374;2.066;2022-08-11T16:29:03;0.98;;;0.80;;
56041;SDS011;48756;41.374;2.066;2022-08-11T16:31:32;1.67;;;1.13;;
56041;SDS011;48756;41.374;2.066;2022-08-11T16:34:00;1.15;;;0.90;;
56041;SDS011;48756;41.374;2.066;2022-08-11T16:36:27;1.92;;;1.08;;
56041;SDS011;48756;41.374;2.066;2022-08-11T16:39:13;2.25;;;1.13;;
56041;SDS011;48756;41.374;2.066;2022-08-11T16:41:44;1.10;;;0.98;;
56041;SDS011;48756;41.374;2.066;2022-08-11T16:44:32;1.60;;;0.80;;
56041;SDS011;48756;41.374;2.066;2022-08-11T16:47:17;5.15;;;1.90;;
56041;SDS011;48756;41.374;2.066;2022-08-11T16:49:47;1.77;;;0.93;;
56041;SDS011;48756;41.374;2.066;2022-08-11T16:52:16;1.48;;;0.88;;
56041;SDS011;48756;41.374;2.066;2022-08-11T16:54:42;2.55;;;1.02;;
56041;SDS011;48756;41.374;2.066;2022-08-11T16:57:15;2.33;;;0.80;;
56041;SDS011;48756;41.374;2.066;2022-08-11T17:00:04;0.80;;;0.80;;
56041;SDS011;48756;41.374;2.066;2022-08-11T17:02:34;1.38;;;1.23;;
56041;SDS011;48756;41.374;2.066;2022-08-11T17:05:21;1.60;;;0.73;;
56041;SDS011;48756;41.374;2.066;2022-08-11T17:08:08;0.80;;;0.80;;
56041;SDS011;48756;41.374;2.066;2022-08-11T17:10:57;3.47;;;1.10;;
56041;SDS011;48756;41.374;2.066;2022-08-11T17:16:14;0.88;;;0.88;;
56041;SDS011;48756;41.374;2.066;2022-08-11T17:21:28;2.63;;;1.80;;
56041;SDS011;48756;41.374;2.066;2022-08-11T17:23:59;1.27;;;1.17;;
56041;SDS011;48756;41.374;2.066;2022-08-11T17:26:31;2.38;;;0.93;;
56041;SDS011;48756;41.374;2.066;2022-08-11T17:29:41;4.13;;;1.23;;
56041;SDS011;48756;41.374;2.066;2022-08-11T17:32:29;1.08;;;0.85;;
56041;SDS011;48756;41.374;2.066;2022-08-11T17:35:20;1.77;;;1.30;;
56041;SDS011;48756;41.374;2.066;2022-08-11T17:38:06;0.88;;;0.85;;
56041;SDS011;48756;41.374;2.066;2022-08-11T17:40:36;1.13;;;1.02;;
56041;SDS011;48756;41.374;2.066;2022-08-11T17:43:24;1.23;;;0.73;;
56041;SDS011;48756;41.374;2.066;2022-08-11T17:46:10;1.55;;;1.10;;
56041;SDS011;48756;41.374;2.066;2022-08-11T17:48:54;3.08;;;1.33;;
56041;SDS011;48756;41.374;2.066;2022-08-11T17:51:21;0.85;;;0.85;;
56041;SDS011;48756;41.374;2.066;2022-08-11T17:54:06;2.17;;;1.58;;
56041;SDS011;48756;41.374;2.066;2022-08-11T17:56:52;0.70;;;0.70;;
56041;SDS011;48756;41.374;2.066;2022-08-11T17:59:38;1.52;;;1.42;;
56041;SDS011;48756;41.374;2.066;2022-08-11T18:03:00;1.08;;;0.85;;
56041;SDS011;48756;41.374;2.066;2022-08-11T18:05:29;2.05;;;1.00;;
56041;SDS011;48756;41.374;2.066;2022-08-11T18:07:58;0.98;;;0.82;;
56041;SDS011;48756;41.374;2.066;2022-08-11T18:10:47;3.30;;;1.25;;
56041;SDS011;48756;41.374;2.066;2022-08-11T18:13:34;2.05;;;1.17;;
56041;SDS011;48756;41.374;2.066;2022-08-11T18:16:20;1.10;;;1.10;;
56041;SDS011;48756;41.374;2.066;2022-08-11T18:19:05;1.20;;;0.93;;
56041;SDS011;48756;41.374;2.066;2022-08-11T18:21:49;4.03;;;0.87;;
56041;SDS011;48756;41.374;2.066;2022-08-11T18:24:40;2.78;;;1.52;;
56041;SDS011;48756;41.374;2.066;2022-08-11T18:27:29;1.42;;;1.02;;
56041;SDS011;48756;41.374;2.066;2022-08-11T18:30:16;3.13;;;1.27;;
56041;SDS011;48756;41.374;2.066;2022-08-11T18:33:01;1.92;;;1.52;;
56041;SDS011;48756;41.374;2.066;2022-08-11T18:35:49;1.57;;;0.80;;
56041;SDS011;48756;41.374;2.066;2022-08-11T18:38:39;1.25;;;1.00;;
56041;SDS011;48756;41.374;2.066;2022-08-11T18:44:11;4.15;;;1.05;;
56041;SDS011;48756;41.374;2.066;2022-08-11T18:46:58;1.77;;;1.10;;
56041;SDS011;48756;41.374;2.066;2022-08-11T18:49:48;6.10;;;1.20;;
56041;SDS011;48756;41.374;2.066;2022-08-11T18:52:43;3.78;;;0.90;;
56041;SDS011;48756;41.374;2.066;2022-08-11T18:55:31;1.73;;;0.93;;
56041;SDS011;48756;41.374;2.066;2022-08-11T18:58:19;1.60;;;1.48;;
56041;SDS011;48756;41.374;2.066;2022-08-11T19:01:08;1.42;;;0.95;;
56041;SDS011;48756;41.374;2.066;2022-08-11T19:03:56;2.70;;;1.05;;
56041;SDS011;48756;41.374;2.066;2022-08-11T19:06:43;2.13;;;1.20;;
56041;SDS011;48756;41.374;2.066;2022-08-11T19:09:30;2.95;;;1.42;;
56041;SDS011;48756;41.374;2.066;2022-08-11T19:12:18;2.42;;;1.38;;
56041;SDS011;48756;41.374;2.066;2022-08-11T19:15:04;2.97;;;1.15;;
56041;SDS011;48756;41.374;2.066;2022-08-11T19:17:50;2.58;;;1.10;;
56041;SDS011;48756;41.374;2.066;2022-08-11T19:20:36;2.38;;;1.40;;
56041;SDS011;48756;41.374;2.066;2022-08-11T19:23:27;2.67;;;2.17;;
56041;SDS011;48756;41.374;2.066;2022-08-11T19:26:24;1.50;;;1.40;;
56041;SDS011;48756;41.374;2.066;2022-08-11T19:29:10;2.30;;;1.30;;
56041;SDS011;48756;41.374;2.066;2022-08-11T19:31:55;1.60;;;1.30;;
56041;SDS011;48756;41.374;2.066;2022-08-11T19:37:25;2.25;;;1.23;;
56041;SDS011;48756;41.374;2.066;2022-08-11T19:40:12;3.33;;;1.58;;
56041;SDS011;48756;41.374;2.066;2022-08-11T19:42:57;4.27;;;1.23;;
56041;SDS011;48756;41.374;2.066;2022-08-11T19:45:43;4.40;;;2.55;;